Tunnerville, South Dakota
Current Conditions -  °F | °C
As of 11:14 AM on Thursday 18 Dec 2014 (Local Time) from KCNB Reporting Station
Overcast Overcast  
Wind Chill: 10°   Ceiling: 7000
Heat Index: 18°   Visibility: 7mi
Dew Point: 16°   Wind: 6mph
Humidity: 92%   Direction: 130°SE
Pressure: 30.25"   Gusts: NA
Location:  44.7895°N, 96.7201°W
Report Text: KCNB 181714Z AUTO 13005KT 7SM OVC070 M08/M09 A3025 RMK AO2 T10761087
Loading
Personal Weather Stations






























Interactive Weather Map New forecast layout! Learn more

10-Day Weather Forecast

Advertisements
Track Severe Weather on mobile